sensor_id;sensor_type;location;lat;lon;timestamp;P1;durP1;ratioP1;P2;durP2;ratioP2
51270;SDS011;37744;50.960;4.136;2023-02-04T00:00:19;24.90;;;12.48;;
51270;SDS011;37744;50.960;4.136;2023-02-04T00:02:45;27.23;;;12.68;;
51270;SDS011;37744;50.960;4.136;2023-02-04T00:05:10;26.95;;;12.38;;
51270;SDS011;37744;50.960;4.136;2023-02-04T00:07:36;23.92;;;12.43;;
51270;SDS011;37744;50.960;4.136;2023-02-04T00:10:02;21.20;;;11.45;;
51270;SDS011;37744;50.960;4.136;2023-02-04T00:12:28;25.08;;;10.60;;
51270;SDS011;37744;50.960;4.136;2023-02-04T00:14:53;28.85;;;10.98;;
51270;SDS011;37744;50.960;4.136;2023-02-04T00:17:19;18.73;;;10.85;;
51270;SDS011;37744;50.960;4.136;2023-02-04T00:19:44;23.58;;;11.43;;
51270;SDS011;37744;50.960;4.136;2023-02-04T00:22:09;29.05;;;12.05;;
51270;SDS011;37744;50.960;4.136;2023-02-04T00:24:35;25.65;;;11.23;;
51270;SDS011;37744;50.960;4.136;2023-02-04T00:27:01;21.13;;;11.73;;
51270;SDS011;37744;50.960;4.136;2023-02-04T00:29:26;25.55;;;11.90;;
51270;SDS011;37744;50.960;4.136;2023-02-04T00:31:51;24.80;;;12.05;;
51270;SDS011;37744;50.960;4.136;2023-02-04T00:34:17;24.20;;;12.15;;
51270;SDS011;37744;50.960;4.136;2023-02-04T00:36:42;26.05;;;12.40;;
51270;SDS011;37744;50.960;4.136;2023-02-04T00:39:08;22.83;;;12.82;;
51270;SDS011;37744;50.960;4.136;2023-02-04T00:41:33;25.23;;;12.88;;
51270;SDS011;37744;50.960;4.136;2023-02-04T00:43:58;28.15;;;14.18;;
51270;SDS011;37744;50.960;4.136;2023-02-04T00:46:24;32.80;;;14.43;;
51270;SDS011;37744;50.960;4.136;2023-02-04T00:48:49;31.85;;;16.63;;
51270;SDS011;37744;50.960;4.136;2023-02-04T00:51:14;29.13;;;15.80;;
51270;SDS011;37744;50.960;4.136;2023-02-04T00:53:39;34.53;;;17.08;;
51270;SDS011;37744;50.960;4.136;2023-02-04T00:56:05;34.17;;;16.45;;
51270;SDS011;37744;50.960;4.136;2023-02-04T00:58:30;34.50;;;17.17;;
51270;SDS011;37744;50.960;4.136;2023-02-04T01:00:56;43.60;;;18.02;;
51270;SDS011;37744;50.960;4.136;2023-02-04T01:03:21;40.67;;;18.30;;
51270;SDS011;37744;50.960;4.136;2023-02-04T01:05:46;32.72;;;17.10;;
51270;SDS011;37744;50.960;4.136;2023-02-04T01:08:11;41.28;;;18.15;;
51270;SDS011;37744;50.960;4.136;2023-02-04T01:10:37;35.75;;;17.65;;
51270;SDS011;37744;50.960;4.136;2023-02-04T01:13:02;39.75;;;18.70;;
51270;SDS011;37744;50.960;4.136;2023-02-04T01:15:27;43.05;;;18.17;;
51270;SDS011;37744;50.960;4.136;2023-02-04T01:17:53;37.50;;;19.20;;
51270;SDS011;37744;50.960;4.136;2023-02-04T01:20:18;40.42;;;18.95;;
51270;SDS011;37744;50.960;4.136;2023-02-04T01:22:43;41.70;;;19.98;;
51270;SDS011;37744;50.960;4.136;2023-02-04T01:25:09;43.55;;;20.58;;
51270;SDS011;37744;50.960;4.136;2023-02-04T01:27:34;38.15;;;19.20;;
51270;SDS011;37744;50.960;4.136;2023-02-04T01:29:59;44.95;;;20.25;;
51270;SDS011;37744;50.960;4.136;2023-02-04T01:32:25;47.47;;;21.42;;
51270;SDS011;37744;50.960;4.136;2023-02-04T01:34:50;50.72;;;20.60;;
51270;SDS011;37744;50.960;4.136;2023-02-04T01:37:15;42.97;;;19.15;;
51270;SDS011;37744;50.960;4.136;2023-02-04T01:39:41;45.67;;;20.80;;
51270;SDS011;37744;50.960;4.136;2023-02-04T01:42:07;58.60;;;22.55;;
51270;SDS011;37744;50.960;4.136;2023-02-04T01:44:32;53.22;;;22.17;;
51270;SDS011;37744;50.960;4.136;2023-02-04T01:46:58;47.42;;;22.08;;
51270;SDS011;37744;50.960;4.136;2023-02-04T01:49:23;56.58;;;21.85;;
51270;SDS011;37744;50.960;4.136;2023-02-04T01:51:48;58.42;;;24.42;;
51270;SDS011;37744;50.960;4.136;2023-02-04T01:54:14;50.38;;;22.63;;
51270;SDS011;37744;50.960;4.136;2023-02-04T01:56:42;48.83;;;23.15;;
51270;SDS011;37744;50.960;4.136;2023-02-04T01:59:10;53.65;;;23.67;;
51270;SDS011;37744;50.960;4.136;2023-02-04T02:01:43;50.10;;;23.92;;
51270;SDS011;37744;50.960;4.136;2023-02-04T02:04:09;48.97;;;23.45;;
51270;SDS011;37744;50.960;4.136;2023-02-04T02:06:35;54.97;;;24.33;;
51270;SDS011;37744;50.960;4.136;2023-02-04T02:09:02;54.50;;;24.98;;
51270;SDS011;37744;50.960;4.136;2023-02-04T02:11:27;55.40;;;24.60;;
51270;SDS011;37744;50.960;4.136;2023-02-04T02:13:53;64.50;;;25.35;;
51270;SDS011;37744;50.960;4.136;2023-02-04T02:16:18;69.05;;;26.27;;
51270;SDS011;37744;50.960;4.136;2023-02-04T02:18:43;69.93;;;28.17;;
51270;SDS011;37744;50.960;4.136;2023-02-04T02:21:09;72.43;;;26.67;;
51270;SDS011;37744;50.960;4.136;2023-02-04T02:23:49;70.13;;;27.73;;
51270;SDS011;37744;50.960;4.136;2023-02-04T02:26:15;67.35;;;26.05;;
51270;SDS011;37744;50.960;4.136;2023-02-04T02:28:41;72.85;;;26.58;;
51270;SDS011;37744;50.960;4.136;2023-02-04T02:31:07;74.60;;;27.83;;
51270;SDS011;37744;50.960;4.136;2023-02-04T02:33:32;79.22;;;29.00;;
51270;SDS011;37744;50.960;4.136;2023-02-04T02:35:58;73.38;;;27.83;;
51270;SDS011;37744;50.960;4.136;2023-02-04T02:38:23;83.35;;;28.10;;
51270;SDS011;37744;50.960;4.136;2023-02-04T02:40:50;81.97;;;28.10;;
51270;SDS011;37744;50.960;4.136;2023-02-04T02:43:17;81.60;;;28.70;;
51270;SDS011;37744;50.960;4.136;2023-02-04T02:45:43;74.95;;;27.63;;
51270;SDS011;37744;50.960;4.136;2023-02-04T02:48:09;72.75;;;26.48;;
51270;SDS011;37744;50.960;4.136;2023-02-04T02:50:35;77.15;;;27.27;;
51270;SDS011;37744;50.960;4.136;2023-02-04T02:53:00;76.13;;;26.90;;
51270;SDS011;37744;50.960;4.136;2023-02-04T02:55:26;85.78;;;28.42;;
51270;SDS011;37744;50.960;4.136;2023-02-04T02:57:52;70.75;;;24.88;;
51270;SDS011;37744;50.960;4.136;2023-02-04T03:00:20;72.43;;;27.08;;
51270;SDS011;37744;50.960;4.136;2023-02-04T03:03:33;84.90;;;29.42;;
51270;SDS011;37744;50.960;4.136;2023-02-04T03:05:34;72.13;;;25.67;;
51270;SDS011;37744;50.960;4.136;2023-02-04T03:08:00;76.65;;;26.77;;
51270;SDS011;37744;50.960;4.136;2023-02-04T03:10:26;71.40;;;25.55;;
51270;SDS011;37744;50.960;4.136;2023-02-04T03:12:52;80.75;;;26.38;;
51270;SDS011;37744;50.960;4.136;2023-02-04T03:15:17;76.00;;;27.20;;
51270;SDS011;37744;50.960;4.136;2023-02-04T03:17:42;73.03;;;27.42;;
51270;SDS011;37744;50.960;4.136;2023-02-04T03:20:08;76.63;;;28.42;;
51270;SDS011;37744;50.960;4.136;2023-02-04T03:22:34;77.03;;;27.95;;
51270;SDS011;37744;50.960;4.136;2023-02-04T03:24:59;81.35;;;29.38;;
51270;SDS011;37744;50.960;4.136;2023-02-04T03:27:25;67.57;;;26.35;;
51270;SDS011;37744;50.960;4.136;2023-02-04T03:29:50;72.47;;;28.33;;
51270;SDS011;37744;50.960;4.136;2023-02-04T03:32:15;68.50;;;26.02;;
51270;SDS011;37744;50.960;4.136;2023-02-04T03:34:41;70.60;;;27.20;;
51270;SDS011;37744;50.960;4.136;2023-02-04T03:37:07;71.28;;;28.02;;
51270;SDS011;37744;50.960;4.136;2023-02-04T03:39:32;72.07;;;27.05;;
51270;SDS011;37744;50.960;4.136;2023-02-04T03:41:57;75.30;;;28.88;;
51270;SDS011;37744;50.960;4.136;2023-02-04T03:44:23;74.50;;;28.92;;
51270;SDS011;37744;50.960;4.136;2023-02-04T03:46:51;88.13;;;30.98;;
51270;SDS011;37744;50.960;4.136;2023-02-04T03:49:19;75.10;;;29.27;;
51270;SDS011;37744;50.960;4.136;2023-02-04T03:51:45;83.00;;;30.25;;
51270;SDS011;37744;50.960;4.136;2023-02-04T03:54:10;73.70;;;29.73;;
51270;SDS011;37744;50.960;4.136;2023-02-04T03:56:35;73.97;;;27.92;;
51270;SDS011;37744;50.960;4.136;2023-02-04T03:59:00;81.55;;;28.67;;
51270;SDS011;37744;50.960;4.136;2023-02-04T04:01:26;77.60;;;29.50;;
51270;SDS011;37744;50.960;4.136;2023-02-04T04:03:51;73.68;;;28.55;;
51270;SDS011;37744;50.960;4.136;2023-02-04T04:06:16;83.20;;;30.13;;
51270;SDS011;37744;50.960;4.136;2023-02-04T04:08:42;83.80;;;29.17;;
51270;SDS011;37744;50.960;4.136;2023-02-04T04:11:07;86.10;;;30.60;;
51270;SDS011;37744;50.960;4.136;2023-02-04T04:13:32;79.88;;;28.15;;
51270;SDS011;37744;50.960;4.136;2023-02-04T04:15:57;85.13;;;28.95;;
51270;SDS011;37744;50.960;4.136;2023-02-04T04:18:23;83.55;;;30.45;;
51270;SDS011;37744;50.960;4.136;2023-02-04T04:20:48;86.95;;;30.13;;
51270;SDS011;37744;50.960;4.136;2023-02-04T04:23:13;78.47;;;29.92;;
51270;SDS011;37744;50.960;4.136;2023-02-04T04:25:40;87.22;;;31.52;;
51270;SDS011;37744;50.960;4.136;2023-02-04T04:28:05;82.15;;;31.15;;
51270;SDS011;37744;50.960;4.136;2023-02-04T04:30:30;69.22;;;28.00;;
51270;SDS011;37744;50.960;4.136;2023-02-04T04:32:55;76.43;;;28.42;;
51270;SDS011;37744;50.960;4.136;2023-02-04T04:35:21;87.53;;;30.05;;
51270;SDS011;37744;50.960;4.136;2023-02-04T04:37:46;76.07;;;28.27;;
51270;SDS011;37744;50.960;4.136;2023-02-04T04:40:11;78.75;;;29.23;;
51270;SDS011;37744;50.960;4.136;2023-02-04T04:42:37;81.72;;;30.67;;
51270;SDS011;37744;50.960;4.136;2023-02-04T04:45:04;85.32;;;30.58;;
51270;SDS011;37744;50.960;4.136;2023-02-04T04:47:29;84.13;;;30.08;;
51270;SDS011;37744;50.960;4.136;2023-02-04T04:49:54;80.35;;;29.17;;
51270;SDS011;37744;50.960;4.136;2023-02-04T04:52:21;90.38;;;31.73;;
51270;SDS011;37744;50.960;4.136;2023-02-04T04:54:46;80.38;;;29.83;;
51270;SDS011;37744;50.960;4.136;2023-02-04T04:57:11;82.60;;;30.35;;
51270;SDS011;37744;50.960;4.136;2023-02-04T04:59:37;78.43;;;30.08;;
51270;SDS011;37744;50.960;4.136;2023-02-04T05:02:02;80.22;;;29.70;;
51270;SDS011;37744;50.960;4.136;2023-02-04T05:04:27;78.93;;;28.70;;
51270;SDS011;37744;50.960;4.136;2023-02-04T05:06:52;84.47;;;30.13;;
51270;SDS011;37744;50.960;4.136;2023-02-04T05:09:18;78.53;;;28.83;;
51270;SDS011;37744;50.960;4.136;2023-02-04T05:11:43;84.65;;;30.17;;
51270;SDS011;37744;50.960;4.136;2023-02-04T05:14:08;75.97;;;28.13;;
51270;SDS011;37744;50.960;4.136;2023-02-04T05:16:34;86.57;;;30.83;;
51270;SDS011;37744;50.960;4.136;2023-02-04T05:18:59;85.13;;;29.88;;
51270;SDS011;37744;50.960;4.136;2023-02-04T05:21:24;92.47;;;30.65;;
51270;SDS011;37744;50.960;4.136;2023-02-04T05:23:49;93.20;;;32.17;;
51270;SDS011;37744;50.960;4.136;2023-02-04T05:26:15;82.43;;;28.20;;
51270;SDS011;37744;50.960;4.136;2023-02-04T05:28:40;81.45;;;30.13;;
51270;SDS011;37744;50.960;4.136;2023-02-04T05:31:05;78.57;;;29.17;;
51270;SDS011;37744;50.960;4.136;2023-02-04T05:33:30;82.20;;;29.60;;
51270;SDS011;37744;50.960;4.136;2023-02-04T05:35:56;80.72;;;29.13;;
51270;SDS011;37744;50.960;4.136;2023-02-04T05:38:21;86.97;;;30.77;;
51270;SDS011;37744;50.960;4.136;2023-02-04T05:40:46;85.70;;;30.63;;
51270;SDS011;37744;50.960;4.136;2023-02-04T05:43:12;87.70;;;30.15;;
51270;SDS011;37744;50.960;4.136;2023-02-04T05:45:37;79.00;;;29.45;;
51270;SDS011;37744;50.960;4.136;2023-02-04T05:48:02;78.97;;;28.17;;
51270;SDS011;37744;50.960;4.136;2023-02-04T05:50:28;78.47;;;29.10;;
51270;SDS011;37744;50.960;4.136;2023-02-04T05:52:53;90.50;;;30.27;;
51270;SDS011;37744;50.960;4.136;2023-02-04T05:55:18;79.38;;;29.23;;
51270;SDS011;37744;50.960;4.136;2023-02-04T05:57:44;73.57;;;26.27;;
51270;SDS011;37744;50.960;4.136;2023-02-04T06:00:10;79.85;;;27.58;;
51270;SDS011;37744;50.960;4.136;2023-02-04T06:02:35;80.18;;;28.75;;
51270;SDS011;37744;50.960;4.136;2023-02-04T06:05:01;85.75;;;28.63;;
51270;SDS011;37744;50.960;4.136;2023-02-04T06:07:26;91.90;;;29.48;;
51270;SDS011;37744;50.960;4.136;2023-02-04T06:09:51;82.85;;;28.50;;
51270;SDS011;37744;50.960;4.136;2023-02-04T06:12:17;90.47;;;31.05;;
51270;SDS011;37744;50.960;4.136;2023-02-04T06:14:42;91.15;;;31.48;;
51270;SDS011;37744;50.960;4.136;2023-02-04T06:17:07;93.63;;;32.30;;
51270;SDS011;37744;50.960;4.136;2023-02-04T06:19:32;86.80;;;30.88;;
51270;SDS011;37744;50.960;4.136;2023-02-04T06:21:58;90.32;;;31.13;;
51270;SDS011;37744;50.960;4.136;2023-02-04T06:24:23;107.93;;;32.85;;
51270;SDS011;37744;50.960;4.136;2023-02-04T06:26:48;81.25;;;30.17;;
51270;SDS011;37744;50.960;4.136;2023-02-04T06:29:14;84.22;;;28.90;;
51270;SDS011;37744;50.960;4.136;2023-02-04T06:31:39;89.03;;;29.13;;
51270;SDS011;37744;50.960;4.136;2023-02-04T06:34:04;83.32;;;30.20;;
51270;SDS011;37744;50.960;4.136;2023-02-04T06:36:30;81.43;;;28.73;;
51270;SDS011;37744;50.960;4.136;2023-02-04T06:38:55;79.97;;;28.05;;
51270;SDS011;37744;50.960;4.136;2023-02-04T06:41:21;75.95;;;25.75;;
51270;SDS011;37744;50.960;4.136;2023-02-04T06:43:46;78.57;;;27.38;;
51270;SDS011;37744;50.960;4.136;2023-02-04T06:46:12;72.93;;;26.95;;
51270;SDS011;37744;50.960;4.136;2023-02-04T06:48:37;80.20;;;25.55;;
51270;SDS011;37744;50.960;4.136;2023-02-04T06:51:02;65.18;;;24.77;;
51270;SDS011;37744;50.960;4.136;2023-02-04T06:53:27;70.80;;;26.77;;
51270;SDS011;37744;50.960;4.136;2023-02-04T06:55:53;68.80;;;25.48;;
51270;SDS011;37744;50.960;4.136;2023-02-04T06:58:18;77.65;;;26.65;;
51270;SDS011;37744;50.960;4.136;2023-02-04T07:00:43;70.88;;;26.33;;
51270;SDS011;37744;50.960;4.136;2023-02-04T07:03:08;85.78;;;27.67;;
51270;SDS011;37744;50.960;4.136;2023-02-04T07:05:34;80.80;;;27.13;;
51270;SDS011;37744;50.960;4.136;2023-02-04T07:07:59;80.25;;;28.85;;
51270;SDS011;37744;50.960;4.136;2023-02-04T07:10:24;81.07;;;27.83;;
51270;SDS011;37744;50.960;4.136;2023-02-04T07:12:50;79.18;;;28.98;;
51270;SDS011;37744;50.960;4.136;2023-02-04T07:15:15;74.28;;;27.10;;
51270;SDS011;37744;50.960;4.136;2023-02-04T07:17:40;75.95;;;27.40;;
51270;SDS011;37744;50.960;4.136;2023-02-04T07:20:06;78.22;;;27.77;;
51270;SDS011;37744;50.960;4.136;2023-02-04T07:22:31;79.85;;;27.45;;
51270;SDS011;37744;50.960;4.136;2023-02-04T07:24:57;94.10;;;29.98;;
51270;SDS011;37744;50.960;4.136;2023-02-04T07:27:22;78.70;;;27.55;;
51270;SDS011;37744;50.960;4.136;2023-02-04T07:29:47;80.47;;;28.52;;
51270;SDS011;37744;50.960;4.136;2023-02-04T07:32:13;86.57;;;29.38;;
51270;SDS011;37744;50.960;4.136;2023-02-04T07:34:38;75.78;;;27.50;;
51270;SDS011;37744;50.960;4.136;2023-02-04T07:37:03;74.30;;;27.73;;
51270;SDS011;37744;50.960;4.136;2023-02-04T07:39:28;80.85;;;26.65;;
51270;SDS011;37744;50.960;4.136;2023-02-04T07:41:54;79.45;;;29.05;;
51270;SDS011;37744;50.960;4.136;2023-02-04T07:44:19;84.22;;;27.55;;
51270;SDS011;37744;50.960;4.136;2023-02-04T07:46:45;87.85;;;28.38;;
51270;SDS011;37744;50.960;4.136;2023-02-04T07:49:10;81.03;;;29.40;;
51270;SDS011;37744;50.960;4.136;2023-02-04T07:51:35;79.82;;;27.40;;
51270;SDS011;37744;50.960;4.136;2023-02-04T07:54:00;87.13;;;27.70;;
51270;SDS011;37744;50.960;4.136;2023-02-04T07:56:26;82.70;;;27.40;;
51270;SDS011;37744;50.960;4.136;2023-02-04T07:58:51;84.55;;;28.20;;
51270;SDS011;37744;50.960;4.136;2023-02-04T08:01:16;93.15;;;30.67;;
51270;SDS011;37744;50.960;4.136;2023-02-04T08:03:42;97.53;;;30.23;;
51270;SDS011;37744;50.960;4.136;2023-02-04T08:06:07;85.38;;;29.10;;
51270;SDS011;37744;50.960;4.136;2023-02-04T08:08:33;85.82;;;28.27;;
51270;SDS011;37744;50.960;4.136;2023-02-04T08:10:59;111.70;;;31.80;;
51270;SDS011;37744;50.960;4.136;2023-02-04T08:13:24;95.00;;;29.80;;
51270;SDS011;37744;50.960;4.136;2023-02-04T08:15:49;95.18;;;31.05;;
51270;SDS011;37744;50.960;4.136;2023-02-04T08:18:15;83.32;;;29.35;;
51270;SDS011;37744;50.960;4.136;2023-02-04T08:20:40;95.75;;;29.67;;
51270;SDS011;37744;50.960;4.136;2023-02-04T08:23:06;96.38;;;29.88;;
51270;SDS011;37744;50.960;4.136;2023-02-04T08:25:31;86.40;;;28.80;;
51270;SDS011;37744;50.960;4.136;2023-02-04T08:27:56;95.82;;;29.65;;
51270;SDS011;37744;50.960;4.136;2023-02-04T08:30:21;105.03;;;34.10;;
51270;SDS011;37744;50.960;4.136;2023-02-04T08:32:47;101.43;;;31.33;;
51270;SDS011;37744;50.960;4.136;2023-02-04T08:35:12;98.97;;;29.10;;
51270;SDS011;37744;50.960;4.136;2023-02-04T08:37:37;110.25;;;32.60;;
51270;SDS011;37744;50.960;4.136;2023-02-04T08:40:03;99.53;;;31.60;;
51270;SDS011;37744;50.960;4.136;2023-02-04T08:42:28;96.72;;;29.73;;
51270;SDS011;37744;50.960;4.136;2023-02-04T08:44:54;89.22;;;28.85;;
51270;SDS011;37744;50.960;4.136;2023-02-04T08:47:19;90.45;;;29.80;;
51270;SDS011;37744;50.960;4.136;2023-02-04T08:49:44;107.68;;;31.63;;
51270;SDS011;37744;50.960;4.136;2023-02-04T08:52:10;89.20;;;29.02;;
51270;SDS011;37744;50.960;4.136;2023-02-04T08:54:35;81.85;;;28.00;;
51270;SDS011;37744;50.960;4.136;2023-02-04T08:57:00;69.82;;;26.70;;
51270;SDS011;37744;50.960;4.136;2023-02-04T08:59:26;66.50;;;25.55;;
51270;SDS011;37744;50.960;4.136;2023-02-04T09:01:52;72.43;;;27.40;;
51270;SDS011;37744;50.960;4.136;2023-02-04T09:04:18;72.20;;;26.25;;
51270;SDS011;37744;50.960;4.136;2023-02-04T09:06:44;101.55;;;31.98;;
51270;SDS011;37744;50.960;4.136;2023-02-04T09:09:09;83.60;;;28.58;;
51270;SDS011;37744;50.960;4.136;2023-02-04T09:11:34;69.65;;;25.63;;
51270;SDS011;37744;50.960;4.136;2023-02-04T09:14:00;72.40;;;25.13;;
51270;SDS011;37744;50.960;4.136;2023-02-04T09:16:25;64.70;;;24.17;;
51270;SDS011;37744;50.960;4.136;2023-02-04T09:18:50;69.35;;;24.50;;
51270;SDS011;37744;50.960;4.136;2023-02-04T09:21:15;59.63;;;22.08;;
51270;SDS011;37744;50.960;4.136;2023-02-04T09:23:41;58.65;;;21.77;;
51270;SDS011;37744;50.960;4.136;2023-02-04T09:26:06;56.38;;;20.50;;
51270;SDS011;37744;50.960;4.136;2023-02-04T09:28:32;56.13;;;21.98;;
51270;SDS011;37744;50.960;4.136;2023-02-04T09:30:57;52.45;;;20.33;;
51270;SDS011;37744;50.960;4.136;2023-02-04T09:33:24;59.80;;;20.65;;
51270;SDS011;37744;50.960;4.136;2023-02-04T09:35:49;56.40;;;20.00;;
51270;SDS011;37744;50.960;4.136;2023-02-04T09:38:14;51.00;;;20.20;;
51270;SDS011;37744;50.960;4.136;2023-02-04T09:40:41;46.30;;;19.13;;
51270;SDS011;37744;50.960;4.136;2023-02-04T09:43:08;43.65;;;16.88;;
51270;SDS011;37744;50.960;4.136;2023-02-04T09:45:34;36.90;;;16.10;;
51270;SDS011;37744;50.960;4.136;2023-02-04T09:48:01;43.30;;;16.17;;
51270;SDS011;37744;50.960;4.136;2023-02-04T09:50:27;35.22;;;14.40;;
51270;SDS011;37744;50.960;4.136;2023-02-04T09:52:53;40.00;;;16.30;;
51270;SDS011;37744;50.960;4.136;2023-02-04T09:55:20;44.45;;;18.13;;
51270;SDS011;37744;50.960;4.136;2023-02-04T09:57:46;45.80;;;18.77;;
51270;SDS011;37744;50.960;4.136;2023-02-04T10:00:16;47.25;;;17.35;;
51270;SDS011;37744;50.960;4.136;2023-02-04T10:02:42;46.08;;;18.80;;
51270;SDS011;37744;50.960;4.136;2023-02-04T10:05:14;48.15;;;19.88;;
51270;SDS011;37744;50.960;4.136;2023-02-04T10:07:40;52.00;;;20.83;;
51270;SDS011;37744;50.960;4.136;2023-02-04T10:10:05;53.78;;;20.42;;
51270;SDS011;37744;50.960;4.136;2023-02-04T10:12:30;53.83;;;20.33;;
51270;SDS011;37744;50.960;4.136;2023-02-04T10:14:56;55.10;;;21.55;;
51270;SDS011;37744;50.960;4.136;2023-02-04T10:17:21;58.67;;;22.05;;
51270;SDS011;37744;50.960;4.136;2023-02-04T10:19:47;57.17;;;22.67;;
51270;SDS011;37744;50.960;4.136;2023-02-04T10:22:16;56.92;;;22.10;;
51270;SDS011;37744;50.960;4.136;2023-02-04T10:24:42;55.13;;;21.02;;
51270;SDS011;37744;50.960;4.136;2023-02-04T10:27:08;59.00;;;22.20;;
51270;SDS011;37744;50.960;4.136;2023-02-04T10:29:34;61.67;;;22.75;;
51270;SDS011;37744;50.960;4.136;2023-02-04T10:31:59;69.25;;;24.30;;
51270;SDS011;37744;50.960;4.136;2023-02-04T10:34:32;55.10;;;22.42;;
51270;SDS011;37744;50.960;4.136;2023-02-04T10:36:57;46.47;;;20.45;;
51270;SDS011;37744;50.960;4.136;2023-02-04T10:39:26;58.58;;;20.73;;
51270;SDS011;37744;50.960;4.136;2023-02-04T10:41:53;56.58;;;22.50;;
51270;SDS011;37744;50.960;4.136;2023-02-04T10:44:23;50.03;;;20.75;;
51270;SDS011;37744;50.960;4.136;2023-02-04T10:46:49;58.17;;;21.10;;
51270;SDS011;37744;50.960;4.136;2023-02-04T10:49:21;56.35;;;22.85;;
51270;SDS011;37744;50.960;4.136;2023-02-04T10:51:47;60.73;;;23.50;;
51270;SDS011;37744;50.960;4.136;2023-02-04T10:54:12;49.03;;;20.73;;
51270;SDS011;37744;50.960;4.136;2023-02-04T10:57:39;49.30;;;20.67;;
51270;SDS011;37744;50.960;4.136;2023-02-04T10:59:45;48.88;;;20.80;;
51270;SDS011;37744;50.960;4.136;2023-02-04T11:02:29;48.05;;;20.45;;
51270;SDS011;37744;50.960;4.136;2023-02-04T11:04:55;48.85;;;20.05;;
51270;SDS011;37744;50.960;4.136;2023-02-04T11:07:20;51.88;;;20.80;;
51270;SDS011;37744;50.960;4.136;2023-02-04T11:09:46;45.28;;;20.23;;
51270;SDS011;37744;50.960;4.136;2023-02-04T11:14:56;57.80;;;23.65;;
51270;SDS011;37744;50.960;4.136;2023-02-04T11:17:28;54.75;;;23.15;;
51270;SDS011;37744;50.960;4.136;2023-02-04T11:19:54;65.47;;;24.63;;
51270;SDS011;37744;50.960;4.136;2023-02-04T11:22:23;55.65;;;24.40;;
51270;SDS011;37744;50.960;4.136;2023-02-04T11:24:49;55.03;;;23.67;;
51270;SDS011;37744;50.960;4.136;2023-02-04T11:29:43;45.35;;;21.48;;
51270;SDS011;37744;50.960;4.136;2023-02-04T11:34:44;51.50;;;22.08;;
51270;SDS011;37744;50.960;4.136;2023-02-04T11:37:17;49.42;;;22.48;;
51270;SDS011;37744;50.960;4.136;2023-02-04T11:39:43;51.22;;;21.80;;
51270;SDS011;37744;50.960;4.136;2023-02-04T11:42:51;50.50;;;21.08;;
51270;SDS011;37744;50.960;4.136;2023-02-04T11:44:59;45.33;;;20.95;;
51270;SDS011;37744;50.960;4.136;2023-02-04T11:47:25;54.85;;;23.88;;
51270;SDS011;37744;50.960;4.136;2023-02-04T11:49:52;46.13;;;21.85;;
51270;SDS011;37744;50.960;4.136;2023-02-04T11:52:19;51.25;;;23.88;;
51270;SDS011;37744;50.960;4.136;2023-02-04T11:54:51;50.40;;;24.10;;
51270;SDS011;37744;50.960;4.136;2023-02-04T11:57:17;53.47;;;26.00;;
51270;SDS011;37744;50.960;4.136;2023-02-04T11:59:42;57.03;;;26.38;;
51270;SDS011;37744;50.960;4.136;2023-02-04T12:02:14;63.85;;;28.38;;
51270;SDS011;37744;50.960;4.136;2023-02-04T12:04:49;59.90;;;27.45;;
51270;SDS011;37744;50.960;4.136;2023-02-04T12:07:14;67.03;;;29.90;;
51270;SDS011;37744;50.960;4.136;2023-02-04T12:09:46;63.22;;;28.73;;
51270;SDS011;37744;50.960;4.136;2023-02-04T12:12:21;65.00;;;29.30;;
51270;SDS011;37744;50.960;4.136;2023-02-04T12:14:46;64.43;;;29.65;;
51270;SDS011;37744;50.960;4.136;2023-02-04T12:17:20;65.97;;;31.38;;
51270;SDS011;37744;50.960;4.136;2023-02-04T12:19:45;67.97;;;31.20;;
51270;SDS011;37744;50.960;4.136;2023-02-04T12:22:11;61.80;;;27.40;;
51270;SDS011;37744;50.960;4.136;2023-02-04T12:24:37;69.32;;;30.45;;
51270;SDS011;37744;50.960;4.136;2023-02-04T12:27:02;69.63;;;30.88;;
51270;SDS011;37744;50.960;4.136;2023-02-04T12:29:27;65.53;;;29.65;;
51270;SDS011;37744;50.960;4.136;2023-02-04T12:31:53;57.55;;;27.90;;
51270;SDS011;37744;50.960;4.136;2023-02-04T12:34:18;59.15;;;27.52;;
51270;SDS011;37744;50.960;4.136;2023-02-04T12:36:43;65.93;;;29.38;;
51270;SDS011;37744;50.960;4.136;2023-02-04T12:39:09;61.72;;;27.65;;
51270;SDS011;37744;50.960;4.136;2023-02-04T12:41:34;53.80;;;28.52;;
51270;SDS011;37744;50.960;4.136;2023-02-04T12:44:00;55.38;;;28.65;;
51270;SDS011;37744;50.960;4.136;2023-02-04T12:46:26;60.05;;;30.15;;
51270;SDS011;37744;50.960;4.136;2023-02-04T12:48:52;58.70;;;27.25;;
51270;SDS011;37744;50.960;4.136;2023-02-04T12:51:17;66.57;;;27.95;;
51270;SDS011;37744;50.960;4.136;2023-02-04T12:53:44;62.33;;;28.45;;
51270;SDS011;37744;50.960;4.136;2023-02-04T12:56:10;58.75;;;27.25;;
51270;SDS011;37744;50.960;4.136;2023-02-04T12:58:35;53.22;;;27.70;;
51270;SDS011;37744;50.960;4.136;2023-02-04T13:01:00;61.78;;;27.85;;
51270;SDS011;37744;50.960;4.136;2023-02-04T13:03:26;66.40;;;27.92;;
51270;SDS011;37744;50.960;4.136;2023-02-04T13:05:51;48.25;;;25.90;;
51270;SDS011;37744;50.960;4.136;2023-02-04T13:08:16;49.67;;;25.73;;
51270;SDS011;37744;50.960;4.136;2023-02-04T13:10:41;51.35;;;25.70;;
51270;SDS011;37744;50.960;4.136;2023-02-04T13:13:07;50.45;;;26.30;;
51270;SDS011;37744;50.960;4.136;2023-02-04T13:15:32;51.70;;;26.00;;
51270;SDS011;37744;50.960;4.136;2023-02-04T13:17:57;48.75;;;24.88;;
51270;SDS011;37744;50.960;4.136;2023-02-04T13:20:23;51.22;;;26.15;;
51270;SDS011;37744;50.960;4.136;2023-02-04T13:22:48;53.03;;;27.08;;
51270;SDS011;37744;50.960;4.136;2023-02-04T13:25:13;48.75;;;25.63;;
51270;SDS011;37744;50.960;4.136;2023-02-04T13:27:39;61.88;;;27.95;;
51270;SDS011;37744;50.960;4.136;2023-02-04T13:30:04;55.05;;;26.92;;
51270;SDS011;37744;50.960;4.136;2023-02-04T13:32:30;51.88;;;26.02;;
51270;SDS011;37744;50.960;4.136;2023-02-04T13:34:55;50.63;;;26.58;;
51270;SDS011;37744;50.960;4.136;2023-02-04T13:37:21;50.90;;;25.50;;
51270;SDS011;37744;50.960;4.136;2023-02-04T13:39:46;47.63;;;24.33;;
51270;SDS011;37744;50.960;4.136;2023-02-04T13:42:11;53.30;;;25.30;;
51270;SDS011;37744;50.960;4.136;2023-02-04T13:44:37;48.78;;;24.60;;
51270;SDS011;37744;50.960;4.136;2023-02-04T13:47:02;43.22;;;22.05;;
51270;SDS011;37744;50.960;4.136;2023-02-04T13:49:27;38.45;;;20.55;;
51270;SDS011;37744;50.960;4.136;2023-02-04T13:51:53;41.70;;;21.42;;
51270;SDS011;37744;50.960;4.136;2023-02-04T13:54:18;45.42;;;22.20;;
51270;SDS011;37744;50.960;4.136;2023-02-04T13:56:43;43.45;;;21.25;;
51270;SDS011;37744;50.960;4.136;2023-02-04T13:59:08;43.28;;;22.13;;
51270;SDS011;37744;50.960;4.136;2023-02-04T14:01:34;43.83;;;20.88;;
51270;SDS011;37744;50.960;4.136;2023-02-04T14:03:59;39.33;;;21.42;;
51270;SDS011;37744;50.960;4.136;2023-02-04T14:06:24;37.40;;;20.65;;
51270;SDS011;37744;50.960;4.136;2023-02-04T14:08:57;36.90;;;20.13;;
51270;SDS011;37744;50.960;4.136;2023-02-04T14:11:22;38.13;;;20.05;;
51270;SDS011;37744;50.960;4.136;2023-02-04T14:13:47;41.90;;;21.20;;
51270;SDS011;37744;50.960;4.136;2023-02-04T14:16:13;35.50;;;19.67;;
51270;SDS011;37744;50.960;4.136;2023-02-04T14:18:38;37.95;;;21.08;;
51270;SDS011;37744;50.960;4.136;2023-02-04T14:21:03;38.88;;;19.23;;